Terminal Aerodrome Forecast
Issued by NWS Caribou, ME

Current Version | Previous Version | Text Only | Print | Product List | Glossary On
Versions: 1 2 3 4 5 6 7 8 9 10 11 12 13 14
000 FTUS41 KCAR 232320 TAFBGR TAF KBGR 232320Z 2400/2424 VRB02KT P6SM SCT100 BKN250 FM241500 11004KT P6SM SCT090 BKN200 FM242000 13005KT P6SM VCSH BKN070 OVC150=

USA.gov is the U.S. government's official web portal to all federal, state and local government web resources and services.